Time;durP1;ratioP1;P1;durP2;ratioP2;P2;SDS_P1;SDS_P2;PMS_P1;PMS_P2;Temp;Humidity;BMP_temperature;BMP_pressure;BME280_temperature;BME280_humidity;BME280_pressure;Samples;Min_cycle;Max_cycle;Signal;HPM_P1;HPM_P2
2023/05/14 00:01:36;;;;;;;11.77;6.45;;;;;;;13.75;100.00;101625.59;5115373;27;20043;-52
2023/05/14 00:04:04;;;;;;;13.80;8.38;;;;;;;13.71;100.00;101623.50;5115367;27;20088;-51
2023/05/14 00:06:30;;;;;;;11.73;8.52;;;;;;;13.76;100.00;101621.13;5115617;27;20369;-50
2023/05/14 00:08:56;;;;;;;11.50;7.50;;;;;;;13.69;100.00;101622.84;5125365;27;20035;-49
2023/05/14 00:11:21;;;;;;;10.32;6.68;;;;;;;13.77;100.00;101627.28;5089258;28;20031;-49
2023/05/14 00:13:48;;;;;;;15.35;9.23;;;;;;;13.72;100.00;101625.97;5112575;27;20030;-50
2023/05/14 00:16:13;;;;;;;11.05;7.25;;;;;;;13.80;100.00;101621.56;5125773;27;20440;-53
2023/05/14 00:18:39;;;;;;;13.60;8.30;;;;;;;13.78;100.00;101613.75;5121106;27;20022;-54
2023/05/14 00:21:04;;;;;;;13.70;8.00;;;;;;;13.72;100.00;101620.63;5123803;27;20102;-53
2023/05/14 00:23:29;;;;;;;13.50;7.40;;;;;;;13.77;100.00;101613.94;5112043;27;20114;-51
2023/05/14 00:25:55;;;;;;;11.73;7.97;;;;;;;13.87;100.00;101622.50;5103504;27;20023;-51
2023/05/14 00:28:20;;;;;;;13.90;8.30;;;;;;;13.94;100.00;101620.75;5123408;27;20528;-53
2023/05/14 00:30:45;;;;;;;11.63;7.63;;;;;;;13.72;100.00;101609.16;5111680;27;20031;-48
2023/05/14 00:33:11;;;;;;;9.93;7.45;;;;;;;13.81;100.00;101602.72;5115767;27;20490;-52
2023/05/14 00:35:36;;;;;;;14.55;8.52;;;;;;;13.90;100.00;101600.78;5122455;27;20026;-48
2023/05/14 00:38:02;;;;;;;12.93;8.93;;;;;;;13.94;100.00;101604.75;5113978;27;20195;-48
2023/05/14 00:40:27;;;;;;;11.02;6.93;;;;;;;13.74;100.00;101593.81;5114797;27;20035;-49
2023/05/14 00:42:54;;;;;;;11.52;6.97;;;;;;;13.88;100.00;101598.28;5115234;27;20031;-48
2023/05/14 00:45:20;;;;;;;15.48;7.50;;;;;;;13.84;100.00;101601.53;5123182;27;20100;-50
2023/05/14 00:47:46;;;;;;;9.60;6.70;;;;;;;13.23;100.00;101604.31;5123900;27;20022;-52
2023/05/14 00:50:13;;;;;;;9.93;7.35;;;;;;;13.18;100.00;101593.38;5116245;27;20034;-51
2023/05/14 00:52:39;;;;;;;12.25;8.18;;;;;;;13.33;100.00;101594.25;5119456;27;20047;-49
2023/05/14 00:55:06;;;;;;;11.13;7.32;;;;;;;13.39;100.00;101595.34;5110087;27;20488;-53
2023/05/14 00:57:32;;;;;;;11.38;6.93;;;;;;;13.45;100.00;101598.13;5119910;27;20039;-51
2023/05/14 00:59:58;;;;;;;9.82;6.82;;;;;;;13.46;100.00;101585.63;5127553;27;20141;-52
2023/05/14 01:02:24;;;;;;;11.55;7.28;;;;;;;13.57;100.00;101581.69;5123325;27;20039;-49
2023/05/14 01:04:50;;;;;;;8.07;6.22;;;;;;;13.45;100.00;101587.47;5111249;27;20035;-49
2023/05/14 01:07:43;;;;;;;8.30;6.57;;;;;;;13.49;100.00;101583.41;5121747;27;20417;-52
2023/05/14 01:10:26;;;;;;;13.98;9.07;;;;;;;13.38;100.00;101575.88;5118753;27;20039;-53
2023/05/14 01:13:12;;;;;;;13.32;8.65;;;;;;;13.35;100.00;101578.09;5125217;27;20031;-50
2023/05/14 01:15:38;;;;;;;12.30;7.90;;;;;;;13.38;100.00;101575.06;5120995;27;20076;-50
2023/05/14 01:18:08;;;;;;;10.98;7.32;;;;;;;13.46;100.00;101565.13;5124710;27;20019;-50
2023/05/14 01:20:35;;;;;;;14.13;7.40;;;;;;;13.50;100.00;101565.59;5112633;27;20042;-51
2023/05/14 01:23:01;;;;;;;11.18;7.40;;;;;;;13.35;100.00;101567.44;5119778;27;20123;-48
2023/05/14 01:25:27;;;;;;;12.85;7.70;;;;;;;13.30;100.00;101568.00;5117662;27;20556;-50
2023/05/14 01:27:58;;;;;;;14.77;9.43;;;;;;;13.15;100.00;101573.25;5125193;27;20433;-52
2023/05/14 01:30:28;;;;;;;13.95;7.85;;;;;;;13.21;100.00;101575.19;5113101;27;20041;-51
2023/05/14 01:32:57;;;;;;;12.85;8.48;;;;;;;13.31;100.00;101564.31;5106479;27;20978;-50
2023/05/14 01:35:28;;;;;;;11.88;8.50;;;;;;;13.35;100.00;101564.78;5120010;27;20476;-51
2023/05/14 01:37:59;;;;;;;13.18;9.38;;;;;;;13.30;100.00;101568.81;5123760;27;20274;-51
2023/05/14 01:40:25;;;;;;;13.57;9.98;;;;;;;13.26;100.00;101562.19;5115791;27;20423;-52
2023/05/14 01:42:52;;;;;;;13.55;8.48;;;;;;;13.36;100.00;101550.44;5114624;27;20032;-55
2023/05/14 01:45:20;;;;;;;12.20;8.13;;;;;;;13.30;100.00;101558.16;5118613;27;20047;-50
2023/05/14 01:47:45;;;;;;;12.48;7.97;;;;;;;13.38;100.00;101556.41;5121390;27;20031;-50
2023/05/14 01:50:10;;;;;;;12.43;9.50;;;;;;;13.32;100.00;101558.00;5117247;27;20411;-50
2023/05/14 01:52:36;;;;;;;10.55;7.47;;;;;;;13.27;100.00;101557.72;5115258;27;20400;-50
2023/05/14 01:55:01;;;;;;;10.60;6.93;;;;;;;13.28;100.00;101554.84;5113075;27;20377;-52
2023/05/14 01:57:26;;;;;;;13.38;8.38;;;;;;;13.38;100.00;101556.41;5116943;27;20080;-54
2023/05/14 01:59:52;;;;;;;14.60;9.13;;;;;;;13.41;100.00;101558.72;5119090;27;20544;-53
2023/05/14 02:02:17;;;;;;;16.17;9.88;;;;;;;13.38;100.00;101554.59;5117076;27;20046;-52
2023/05/14 02:04:42;;;;;;;10.95;8.48;;;;;;;13.39;100.00;101542.09;5120048;27;20038;-52
2023/05/14 02:07:08;;;;;;;9.63;6.82;;;;;;;13.44;100.00;101542.34;5109104;27;20035;-49
2023/05/14 02:09:33;;;;;;;10.50;7.68;;;;;;;13.39;100.00;101540.25;5121302;27;20034;-51
2023/05/14 02:11:58;;;;;;;8.50;6.47;;;;;;;13.34;100.00;101542.63;5119583;27;20637;-52
2023/05/14 02:14:24;;;;;;;10.75;6.95;;;;;;;13.28;100.00;101548.69;5126283;27;20131;-52
2023/05/14 02:16:50;;;;;;;10.77;7.55;;;;;;;13.22;100.00;101550.22;5126037;27;20050;-54
2023/05/14 02:19:15;;;;;;;7.97;6.25;;;;;;;13.22;100.00;101541.41;5122364;27;20093;-49
2023/05/14 02:21:40;;;;;;;8.48;6.10;;;;;;;13.16;100.00;101542.94;5119835;27;20042;-53
2023/05/14 02:24:06;;;;;;;9.45;7.78;;;;;;;13.18;100.00;101537.44;5124139;27;20019;-52
2023/05/14 02:26:31;;;;;;;10.13;7.43;;;;;;;13.18;100.00;101538.28;5125547;27;20026;-50
2023/05/14 02:28:56;;;;;;;8.38;5.72;;;;;;;13.29;100.00;101527.22;5119156;27;20040;-49
2023/05/14 02:31:22;;;;;;;9.25;7.15;;;;;;;13.43;100.00;101530.06;5128020;27;20416;-53
2023/05/14 02:33:47;;;;;;;7.65;5.95;;;;;;;13.45;100.00;101528.00;5112115;27;20055;-50
2023/05/14 02:36:12;;;;;;;6.63;4.55;;;;;;;13.38;100.00;101525.28;5124097;27;20031;-53
2023/05/14 02:38:38;;;;;;;8.85;7.18;;;;;;;13.28;100.00;101522.88;5114371;27;20351;-48
2023/05/14 02:41:03;;;;;;;7.50;6.22;;;;;;;13.28;100.00;101519.41;5117649;27;20051;-48
2023/05/14 02:43:28;;;;;;;12.10;8.25;;;;;;;13.26;100.00;101514.25;5113160;27;20111;-49
2023/05/14 02:45:54;;;;;;;9.48;6.20;;;;;;;13.33;100.00;101510.88;5121861;27;20125;-50
2023/05/14 02:48:19;;;;;;;8.98;6.45;;;;;;;13.32;100.00;101510.03;5126760;27;20030;-52
2023/05/14 02:50:45;;;;;;;10.50;6.35;;;;;;;13.30;100.00;101507.56;5104579;27;20032;-52
2023/05/14 02:53:10;;;;;;;8.27;6.00;;;;;;;13.35;100.00;101506.19;5116195;27;20042;-51
2023/05/14 02:55:35;;;;;;;9.13;7.03;;;;;;;13.44;100.00;101510.38;5118627;27;20031;-52
2023/05/14 02:58:01;;;;;;;9.18;7.40;;;;;;;13.03;100.00;101508.13;5122863;27;20102;-53
2023/05/14 03:00:26;;;;;;;7.68;6.20;;;;;;;13.07;100.00;101506.78;5122724;27;20039;-50
2023/05/14 03:02:51;;;;;;;9.02;6.43;;;;;;;13.03;100.00;101505.47;5115920;27;20209;-48
2023/05/14 03:05:17;;;;;;;9.95;6.78;;;;;;;12.95;100.00;101506.38;5122196;27;20123;-52
2023/05/14 03:07:42;;;;;;;7.95;5.57;;;;;;;12.65;100.00;101505.53;5122332;27;20566;-55
2023/05/14 03:10:08;;;;;;;11.18;7.07;;;;;;;12.94;100.00;101499.41;5123114;27;20031;-51
2023/05/14 03:12:33;;;;;;;9.88;6.20;;;;;;;12.99;100.00;101501.53;5123058;27;20027;-50
2023/05/14 03:14:58;;;;;;;12.85;6.20;;;;;;;13.06;100.00;101502.44;5112762;27;20066;-51
2023/05/14 03:17:24;;;;;;;10.60;7.45;;;;;;;13.03;100.00;101511.63;5122878;27;20105;-51
2023/05/14 03:19:49;;;;;;;7.53;6.07;;;;;;;13.07;100.00;101506.78;5118010;27;20024;-52
2023/05/14 03:22:14;;;;;;;10.60;6.43;;;;;;;13.16;100.00;101507.50;5111382;27;20365;-52
2023/05/14 03:24:40;;;;;;;8.05;5.95;;;;;;;13.29;100.00;101497.06;5118538;27;20032;-52
2023/05/14 03:27:05;;;;;;;10.95;7.57;;;;;;;13.36;100.00;101499.84;5127288;27;20479;-51
2023/05/14 03:29:30;;;;;;;8.88;6.18;;;;;;;13.43;100.00;101493.59;5121429;27;20382;-52
2023/05/14 03:31:56;;;;;;;7.72;5.63;;;;;;;13.37;100.00;101483.69;5116232;27;20046;-50
2023/05/14 03:34:21;;;;;;;8.15;6.18;;;;;;;13.46;100.00;101487.88;5123457;27;20035;-54
2023/05/14 03:36:47;;;;;;;9.50;6.68;;;;;;;13.55;100.00;101485.94;5109941;27;20432;-51
2023/05/14 03:39:18;;;;;;;10.65;6.43;;;;;;;13.48;100.00;101482.38;5115668;27;20114;-52
2023/05/14 03:41:44;;;;;;;11.63;8.50;;;;;;;13.49;100.00;101484.84;5120130;27;20083;-51
2023/05/14 03:44:09;;;;;;;11.50;6.90;;;;;;;13.41;100.00;101478.78;5116422;27;20027;-55
2023/05/14 03:46:34;;;;;;;9.85;6.85;;;;;;;13.42;100.00;101472.44;5106212;27;20201;-54
2023/05/14 03:48:59;;;;;;;7.90;6.40;;;;;;;13.29;100.00;101470.44;5122223;27;20031;-53
2023/05/14 03:51:25;;;;;;;9.95;7.18;;;;;;;13.25;100.00;101480.59;5123478;27;20164;-53
2023/05/14 03:53:50;;;;;;;9.75;6.32;;;;;;;12.20;100.00;101485.91;5125118;27;20471;-48
2023/05/14 03:56:15;;;;;;;10.43;7.68;;;;;;;12.04;100.00;101483.38;5122285;27;20108;-52
2023/05/14 03:58:41;;;;;;;10.00;6.43;;;;;;;12.29;100.00;101490.16;5112353;27;20030;-53
2023/05/14 04:01:07;;;;;;;8.60;6.18;;;;;;;12.29;100.00;101482.19;5115191;27;20031;-51
2023/05/14 04:03:32;;;;;;;13.82;8.32;;;;;;;12.05;100.00;101491.16;5126161;27;20035;-51
2023/05/14 04:05:57;;;;;;;9.32;7.47;;;;;;;12.39;100.00;101481.94;5117598;27;20536;-53
2023/05/14 04:08:23;;;;;;;11.18;7.93;;;;;;;12.50;100.00;101483.38;5116585;27;20039;-50
2023/05/14 04:10:48;;;;;;;7.68;6.22;;;;;;;12.15;100.00;101482.94;5112504;27;20077;-51
2023/05/14 04:13:14;;;;;;;11.13;7.40;;;;;;;11.89;100.00;101489.41;5119933;27;20037;-51
2023/05/14 04:15:39;;;;;;;11.40;7.05;;;;;;;12.11;100.00;101477.16;5113228;27;20035;-50
2023/05/14 04:18:04;;;;;;;13.13;8.63;;;;;;;12.24;100.00;101487.22;5111804;27;20061;-50
2023/05/14 04:20:30;;;;;;;12.63;6.95;;;;;;;12.63;100.00;101475.59;5113417;27;20043;-52
2023/05/14 04:22:55;;;;;;;9.43;7.07;;;;;;;12.78;100.00;101478.28;5117956;27;20019;-55
2023/05/14 04:25:21;;;;;;;12.48;8.05;;;;;;;12.70;100.00;101473.03;5119811;27;20493;-53
2023/05/14 04:27:46;;;;;;;14.60;8.20;;;;;;;12.78;100.00;101473.78;5120590;27;20114;-48
2023/05/14 04:30:11;;;;;;;12.77;7.95;;;;;;;12.73;100.00;101470.03;5119022;27;20023;-52
2023/05/14 04:32:37;;;;;;;11.10;7.15;;;;;;;12.69;100.00;101472.22;5117944;27;20127;-51
2023/05/14 04:35:04;;;;;;;10.85;7.00;;;;;;;12.62;100.00;101469.47;5119126;27;20114;-49
2023/05/14 04:37:30;;;;;;;11.73;7.60;;;;;;;12.59;100.00;101477.78;5121809;27;20104;-53
2023/05/14 04:39:55;;;;;;;11.90;7.40;;;;;;;12.58;100.00;101480.63;5126579;27;20022;-51
2023/05/14 04:42:21;;;;;;;14.65;7.90;;;;;;;12.86;100.00;101471.03;5110583;27;20108;-52
2023/05/14 04:44:46;;;;;;;11.10;8.25;;;;;;;12.70;100.00;101471.22;5119648;27;20039;-52
2023/05/14 04:47:11;;;;;;;11.98;8.40;;;;;;;12.53;100.00;101472.38;5114164;27;20237;-52
2023/05/14 04:49:37;;;;;;;12.35;8.02;;;;;;;12.51;100.00;101471.72;5123688;27;20034;-53
2023/05/14 04:52:02;;;;;;;9.27;6.57;;;;;;;12.40;100.00;101468.47;5117587;27;20540;-50
2023/05/14 04:54:27;;;;;;;12.57;8.50;;;;;;;12.62;100.00;101471.25;5131323;27;20040;-50
2023/05/14 04:56:54;;;;;;;13.50;8.02;;;;;;;12.78;100.00;101475.63;5118427;27;20027;-48
2023/05/14 04:59:20;;;;;;;10.48;8.13;;;;;;;12.84;100.00;101472.25;5119370;27;20236;-50
2023/05/14 05:01:45;;;;;;;17.88;9.70;;;;;;;12.99;100.00;101481.06;5106137;27;20035;-48
2023/05/14 05:04:10;;;;;;;14.10;7.75;;;;;;;13.02;100.00;101469.22;5116564;27;20027;-53
2023/05/14 05:06:36;;;;;;;10.40;7.13;;;;;;;13.07;100.00;101473.00;5114248;27;20087;-49
2023/05/14 05:09:01;;;;;;;17.85;11.10;;;;;;;13.07;100.00;101475.66;5117465;27;20023;-49
2023/05/14 05:11:26;;;;;;;11.02;8.32;;;;;;;13.17;100.00;101466.56;5118286;27;20038;-54
2023/05/14 05:13:52;;;;;;;14.02;9.05;;;;;;;13.13;100.00;101467.94;5114960;27;20034;-50
2023/05/14 05:16:17;;;;;;;14.82;10.25;;;;;;;12.88;100.00;101469.03;5114946;27;20035;-50
2023/05/14 05:18:43;;;;;;;14.07;9.57;;;;;;;12.94;100.00;101462.16;5111583;27;20027;-52
2023/05/14 05:21:09;;;;;;;11.00;7.75;;;;;;;13.03;100.00;101454.91;5105944;27;20035;-51
2023/05/14 05:23:34;;;;;;;15.52;9.45;;;;;;;13.26;100.00;101455.66;5114998;27;20038;-50
2023/05/14 05:25:59;;;;;;;20.98;10.75;;;;;;;13.16;100.00;101457.72;5117638;27;20084;-51
2023/05/14 05:28:24;;;;;;;13.77;8.63;;;;;;;13.06;100.00;101452.72;5126101;27;20139;-53
2023/05/14 05:30:50;;;;;;;15.10;9.02;;;;;;;13.14;100.00;101454.44;5111088;27;20079;-53
2023/05/14 05:33:15;;;;;;;12.52;7.97;;;;;;;13.18;100.00;101449.56;5107410;27;20395;-53
2023/05/14 05:35:42;;;;;;;14.00;9.05;;;;;;;13.17;100.00;101450.59;5105916;27;20123;-49
2023/05/14 05:38:07;;;;;;;18.83;10.70;;;;;;;13.36;100.00;101443.91;5113429;27;20020;-49
2023/05/14 05:40:32;;;;;;;15.55;9.27;;;;;;;13.47;100.00;101446.91;5116254;27;20475;-52
2023/05/14 05:42:58;;;;;;;13.65;7.63;;;;;;;13.38;100.00;101449.88;5115817;27;20054;-50
2023/05/14 05:45:23;;;;;;;12.73;7.55;;;;;;;13.22;100.00;101453.53;5112541;27;20055;-50
2023/05/14 05:47:48;;;;;;;9.25;6.57;;;;;;;13.11;100.00;101449.47;5118253;27;20027;-49
2023/05/14 05:50:14;;;;;;;13.48;8.20;;;;;;;13.09;100.00;101449.66;5120426;27;20027;-52
2023/05/14 05:52:39;;;;;;;17.63;9.07;;;;;;;13.27;100.00;101459.16;5127091;27;20039;-48
2023/05/14 05:55:05;;;;;;;13.60;8.50;;;;;;;13.46;100.00;101455.09;5135736;27;20026;-52
2023/05/14 05:57:30;;;;;;;12.18;7.90;;;;;;;13.57;100.00;101446.59;5124409;27;20026;-50
2023/05/14 05:59:56;;;;;;;11.18;7.25;;;;;;;13.79;100.00;101446.66;5126609;27;20030;-52
2023/05/14 06:02:22;;;;;;;15.30;10.07;;;;;;;13.88;100.00;101443.66;5125878;27;20038;-52
2023/05/14 06:04:47;;;;;;;12.23;7.07;;;;;;;13.93;100.00;101448.44;5136889;27;20102;-50
2023/05/14 06:07:12;;;;;;;14.48;9.18;;;;;;;14.02;100.00;101449.97;5126764;27;20396;-53
2023/05/14 06:09:38;;;;;;;14.77;7.72;;;;;;;14.09;100.00;101442.84;5125580;27;20122;-48
2023/05/14 06:12:03;;;;;;;14.20;9.82;;;;;;;14.11;100.00;101432.00;5114862;27;20515;-53
2023/05/14 06:14:29;;;;;;;13.77;9.40;;;;;;;14.25;100.00;101438.28;5116830;27;20060;-54
2023/05/14 06:16:54;;;;;;;11.10;6.05;;;;;;;13.86;100.00;101443.06;5124927;27;20153;-54
2023/05/14 06:19:21;;;;;;;12.20;8.43;;;;;;;13.88;100.00;101449.00;5123737;27;20065;-55
2023/05/14 06:21:46;;;;;;;10.07;6.68;;;;;;;10.74;100.00;101451.81;5115086;27;20066;-52
2023/05/14 06:24:12;;;;;;;10.07;6.88;;;;;;;10.06;100.00;101460.91;5126424;27;20348;-53
2023/05/14 06:26:37;;;;;;;13.15;8.55;;;;;;;9.93;100.00;101461.38;5123154;27;20027;-51
2023/05/14 06:29:02;;;;;;;13.35;8.93;;;;;;;9.93;100.00;101471.16;5121589;27;20019;-50
2023/05/14 06:31:28;;;;;;;11.40;7.72;;;;;;;10.00;100.00;101472.97;5117078;27;20032;-53
2023/05/14 06:33:53;;;;;;;12.05;8.68;;;;;;;10.17;100.00;101471.19;5124012;27;20447;-55
2023/05/14 06:36:18;;;;;;;14.45;8.77;;;;;;;10.32;100.00;101473.22;5126319;27;20603;-52
2023/05/14 06:38:44;;;;;;;12.27;8.30;;;;;;;10.83;100.00;101461.41;5124690;27;20087;-52
2023/05/14 06:41:09;;;;;;;14.95;9.45;;;;;;;10.44;100.00;101464.75;5122064;27;20290;-50
2023/05/14 06:43:34;;;;;;;12.90;7.80;;;;;;;10.32;100.00;101462.59;5119817;27;20483;-49
2023/05/14 06:46:00;;;;;;;15.57;8.18;;;;;;;10.35;100.00;101464.94;5127890;27;20038;-51
2023/05/14 06:48:28;;;;;;;12.75;8.30;;;;;;;10.44;100.00;101462.13;5132041;27;20465;-51
2023/05/14 06:50:53;;;;;;;13.70;8.80;;;;;;;10.57;100.00;101469.56;5116562;27;20174;-54
2023/05/14 06:53:19;;;;;;;12.68;8.40;;;;;;;10.62;100.00;101456.63;5120934;27;20174;-51
2023/05/14 06:55:46;;;;;;;13.85;7.45;;;;;;;10.54;100.00;101464.59;5119482;27;20098;-54
2023/05/14 06:58:11;;;;;;;13.10;8.40;;;;;;;10.62;100.00;101471.72;5119993;27;20030;-51
2023/05/14 07:00:37;;;;;;;11.57;6.72;;;;;;;10.66;100.00;101468.59;5119822;27;20063;-51
2023/05/14 07:03:02;;;;;;;13.07;8.45;;;;;;;10.78;100.00;101458.44;5117702;27;20023;-54
2023/05/14 07:05:27;;;;;;;8.93;6.28;;;;;;;10.80;100.00;101468.88;5117825;27;20031;-54
2023/05/14 07:07:53;;;;;;;12.05;7.75;;;;;;;10.77;100.00;101462.09;5118273;27;20031;-53
2023/05/14 07:10:18;;;;;;;15.32;9.43;;;;;;;12.05;100.00;101453.13;5119569;27;20053;-53
2023/05/14 07:12:44;;;;;;;9.80;7.72;;;;;;;12.38;100.00;101445.72;5117369;27;20759;-48
2023/05/14 07:15:11;;;;;;;14.95;9.35;;;;;;;13.19;100.00;101430.75;5120503;27;20062;-51
2023/05/14 07:17:36;;;;;;;16.35;9.27;;;;;;;13.54;100.00;101431.00;5120306;27;20027;-54
2023/05/14 07:20:02;;;;;;;10.95;7.05;;;;;;;13.84;100.00;101422.94;5114586;27;20025;-51
2023/05/14 07:22:27;;;;;;;14.82;9.18;;;;;;;13.94;100.00;101426.94;5122192;27;20130;-53
2023/05/14 07:24:53;;;;;;;10.10;7.32;;;;;;;14.23;100.00;101425.16;5120537;27;20031;-51
2023/05/14 07:27:18;;;;;;;11.90;7.22;;;;;;;14.56;100.00;101413.91;5113335;27;20605;-48
2023/05/14 07:29:43;;;;;;;10.75;7.30;;;;;;;14.73;100.00;101407.28;5121124;27;20051;-49
2023/05/14 07:32:09;;;;;;;8.02;6.43;;;;;;;14.81;100.00;101404.44;5114535;27;20462;-50
2023/05/14 07:34:34;;;;;;;17.55;8.55;;;;;;;14.84;100.00;101411.22;5116433;27;20493;-53
2023/05/14 07:37:00;;;;;;;12.82;7.60;;;;;;;14.98;100.00;101401.47;5112066;27;20035;-52
2023/05/14 07:39:26;;;;;;;13.23;8.73;;;;;;;15.02;100.00;101400.03;5111862;27;20055;-53
2023/05/14 07:41:53;;;;;;;9.77;7.40;;;;;;;14.96;100.00;101398.97;5115747;27;20115;-49
2023/05/14 07:44:19;;;;;;;12.63;6.43;;;;;;;14.85;100.00;101396.06;5118548;27;20428;-48
2023/05/14 07:46:44;;;;;;;13.85;7.95;;;;;;;14.97;100.00;101395.31;5107359;27;20088;-51
2023/05/14 07:49:10;;;;;;;10.68;7.72;;;;;;;14.98;100.00;101402.28;5113625;27;20110;-49
2023/05/14 07:51:35;;;;;;;12.50;7.80;;;;;;;14.81;100.00;101409.78;5114506;27;20066;-50
2023/05/14 07:54:00;;;;;;;11.43;8.77;;;;;;;14.76;100.00;101406.06;5119309;27;20599;-54
2023/05/14 07:56:26;;;;;;;13.50;7.28;;;;;;;14.57;100.00;101397.72;5113947;27;20114;-53
2023/05/14 07:58:51;;;;;;;11.57;7.55;;;;;;;14.69;100.00;101403.34;5113878;27;20029;-50
2023/05/14 08:01:16;;;;;;;13.57;8.40;;;;;;;14.88;100.00;101407.16;5115520;27;20537;-50
2023/05/14 08:03:42;;;;;;;12.63;7.78;;;;;;;15.08;100.00;101395.78;5112318;27;20031;-50
2023/05/14 08:06:07;;;;;;;11.18;7.15;;;;;;;15.24;100.00;101390.91;5113501;27;20031;-51
2023/05/14 08:08:33;;;;;;;11.40;7.47;;;;;;;15.41;100.00;101391.38;5110958;27;20023;-49
2023/05/14 08:10:58;;;;;;;12.50;7.80;;;;;;;15.58;100.00;101393.69;5109545;27;21527;-47
2023/05/14 08:13:23;;;;;;;11.07;6.40;;;;;;;16.06;100.00;101382.88;5124421;27;20023;-52
2023/05/14 08:15:49;;;;;;;11.30;7.30;;;;;;;16.52;100.00;101377.50;5116845;27;20130;-50
2023/05/14 08:18:14;;;;;;;11.80;7.05;;;;;;;16.62;100.00;101379.72;5116354;27;20030;-50
2023/05/14 08:20:40;;;;;;;14.43;8.30;;;;;;;16.61;100.00;101386.13;5116769;27;20046;-51
2023/05/14 08:23:06;;;;;;;11.00;7.18;;;;;;;16.36;100.00;101386.78;5112157;27;20027;-51
2023/05/14 08:25:32;;;;;;;30.35;7.40;;;;;;;15.75;100.00;101391.47;5119126;27;20035;-49
2023/05/14 08:27:58;;;;;;;10.35;6.43;;;;;;;15.68;100.00;101386.09;5116766;27;20371;-48
2023/05/14 08:30:24;;;;;;;11.50;7.53;;;;;;;15.72;100.00;101397.22;5115637;27;21491;-51
2023/05/14 08:32:50;;;;;;;10.73;6.88;;;;;;;15.92;100.00;101393.56;5119942;27;20046;-54
2023/05/14 08:35:16;;;;;;;11.30;7.32;;;;;;;16.21;100.00;101383.50;5112244;27;20031;-54
2023/05/14 08:37:41;;;;;;;9.65;7.15;;;;;;;16.28;100.00;101380.81;5114740;27;20084;-52
2023/05/14 08:40:08;;;;;;;10.95;6.57;;;;;;;16.06;100.00;101373.00;5116609;27;20057;-49
2023/05/14 08:42:33;;;;;;;11.25;6.60;;;;;;;16.04;100.00;101380.41;5102637;27;20403;-51
2023/05/14 08:45:00;;;;;;;13.40;7.93;;;;;;;16.11;100.00;101369.72;5107874;27;20043;-50
2023/05/14 08:47:29;;;;;;;9.95;6.43;;;;;;;15.65;100.00;101373.13;5107499;27;20504;-49
2023/05/14 08:50:03;;;;;;;9.68;6.38;;;;;;;15.48;100.00;101365.47;5111082;27;20438;-51
2023/05/14 08:52:29;;;;;;;10.30;7.35;;;;;;;15.54;100.00;101363.03;5113232;27;20489;-47
2023/05/14 08:54:54;;;;;;;12.45;8.93;;;;;;;15.61;100.00;101362.00;5119727;27;20326;-50
2023/05/14 08:57:23;;;;;;;12.50;7.47;;;;;;;15.94;100.00;101353.25;5112874;27;20062;-48
2023/05/14 08:59:49;;;;;;;9.07;6.57;;;;;;;15.84;100.00;101348.28;5110380;27;20066;-48
2023/05/14 09:02:16;;;;;;;10.85;7.22;;;;;;;16.04;100.00;101350.97;5110787;27;20028;-51
2023/05/14 09:04:42;;;;;;;10.32;6.88;;;;;;;15.95;100.00;101346.84;5110099;27;20027;-47
2023/05/14 09:07:07;;;;;;;10.10;6.40;;;;;;;15.94;100.00;101342.53;5115914;27;20026;-50
2023/05/14 09:09:33;;;;;;;11.48;6.15;;;;;;;16.02;100.00;101338.84;5113942;27;20031;-49
2023/05/14 09:12:00;;;;;;;10.25;6.13;;;;;;;16.21;100.00;101342.53;5123489;27;20626;-50
2023/05/14 09:14:25;;;;;;;9.70;4.82;;;;;;;16.46;100.00;101335.50;5100359;27;20027;-48
2023/05/14 09:16:51;;;;;;;8.90;6.22;;;;;;;16.73;100.00;101330.91;5138274;27;20027;-50
2023/05/14 09:19:17;;;;;;;9.05;6.35;;;;;;;16.96;100.00;101327.78;5130386;27;20110;-49
2023/05/14 09:21:48;;;;;;;8.68;6.32;;;;;;;16.91;100.00;101322.22;5137493;27;20043;-52
2023/05/14 09:24:22;;;;;;;9.13;5.78;;;;;;;17.15;100.00;101325.22;5134293;27;20049;-49
2023/05/14 09:26:56;;;;;;;13.27;7.78;;;;;;;17.44;100.00;101326.47;5116879;27;20027;-51
2023/05/14 09:29:25;;;;;;;9.95;6.10;;;;;;;17.24;100.00;101315.88;5129493;27;20446;-53
2023/05/14 09:31:51;;;;;;;10.13;7.13;;;;;;;17.09;100.00;101318.84;5132447;27;20121;-52
2023/05/14 09:34:28;;;;;;;9.88;7.10;;;;;;;17.93;100.00;101318.72;5131163;27;20035;-53
2023/05/14 09:36:56;;;;;;;13.77;7.40;;;;;;;18.03;100.00;101319.06;5132467;27;20018;-52
2023/05/14 09:39:23;;;;;;;10.05;7.35;;;;;;;18.39;100.00;101307.56;5127257;27;20035;-48
2023/05/14 09:41:50;;;;;;;8.68;6.57;;;;;;;18.34;100.00;101315.47;5133661;27;20037;-51
2023/05/14 09:44:16;;;;;;;10.50;7.20;;;;;;;18.91;100.00;101301.81;5131912;27;20023;-52
2023/05/14 09:46:41;;;;;;;10.52;7.03;;;;;;;19.16;100.00;101299.84;5134936;27;20046;-50
2023/05/14 09:49:06;;;;;;;10.10;7.90;;;;;;;19.42;100.00;101302.38;5129061;27;20470;-53
2023/05/14 09:51:31;;;;;;;12.02;5.80;;;;;;;19.51;100.00;101303.69;5134744;27;20031;-53
2023/05/14 09:53:57;;;;;;;12.43;7.55;;;;;;;19.32;100.00;101301.06;5133541;27;20045;-51
2023/05/14 09:56:22;;;;;;;11.18;7.60;;;;;;;19.69;100.00;101292.84;5132361;27;20026;-50
2023/05/14 09:58:48;;;;;;;10.23;7.95;;;;;;;19.82;100.00;101289.94;5121420;27;20425;-51
2023/05/14 10:01:17;;;;;;;12.98;8.23;;;;;;;19.99;100.00;101290.09;5113268;27;20546;-48
2023/05/14 10:03:43;;;;;;;9.57;7.55;;;;;;;20.13;100.00;101295.22;5114423;27;20027;-48
2023/05/14 10:06:12;;;;;;;15.07;6.82;;;;;;;20.15;100.00;101277.78;5112965;27;20606;-50
2023/05/14 10:08:40;;;;;;;10.85;7.75;;;;;;;20.36;100.00;101280.94;5114066;27;20034;-52
2023/05/14 10:11:21;;;;;;;11.45;7.88;;;;;;;20.13;100.00;101279.88;5111777;27;20096;-50
2023/05/14 10:14:02;;;;;;;9.77;7.38;;;;;;;19.93;100.00;101288.34;5128751;27;20031;-47
2023/05/14 10:16:32;;;;;;;14.55;7.47;;;;;;;20.29;100.00;101291.00;5132759;27;20059;-54
2023/05/14 10:19:06;;;;;;;8.70;6.38;;;;;;;20.75;100.00;101295.50;5127620;27;20045;-50
2023/05/14 10:21:34;;;;;;;11.70;7.35;;;;;;;21.11;100.00;101290.81;5126776;27;20213;-50
2023/05/14 10:24:00;;;;;;;8.35;6.88;;;;;;;21.42;100.00;101300.28;5121807;27;20501;-53
2023/05/14 10:26:26;;;;;;;9.95;8.63;;;;;;;21.46;100.00;101298.75;5132307;27;20106;-50
2023/05/14 10:28:52;;;;;;;12.00;7.97;;;;;;;21.73;100.00;101298.09;5128679;27;20030;-51
2023/05/14 10:31:22;;;;;;;8.75;7.10;;;;;;;21.82;100.00;101290.44;5131141;27;20503;-53
2023/05/14 10:33:49;;;;;;;10.60;8.10;;;;;;;21.87;100.00;101288.63;5136805;27;20054;-50
2023/05/14 10:36:16;;;;;;;11.88;7.82;;;;;;;22.02;100.00;101279.09;5140666;27;20031;-51
2023/05/14 10:38:42;;;;;;;12.32;8.88;;;;;;;22.25;100.00;101281.63;5138319;27;20448;-51
2023/05/14 10:41:16;;;;;;;11.35;8.07;;;;;;;22.29;100.00;101269.25;5137400;27;20125;-50
2023/05/14 10:43:43;;;;;;;13.82;8.98;;;;;;;22.55;100.00;101266.88;5117798;27;20113;-51
2023/05/14 10:46:10;;;;;;;13.32;8.23;;;;;;;22.84;100.00;101265.59;5124582;27;20047;-53
2023/05/14 10:48:37;;;;;;;11.60;8.57;;;;;;;23.00;100.00;101260.38;5131977;27;20472;-49
2023/05/14 10:51:06;;;;;;;12.00;8.43;;;;;;;23.23;100.00;101251.97;5120936;27;20027;-49
2023/05/14 10:53:36;;;;;;;14.25;9.68;;;;;;;20.73;100.00;101257.22;5114978;27;20031;-50
2023/05/14 10:56:06;;;;;;;10.35;9.15;;;;;;;20.10;100.00;101256.13;5136781;27;20076;-49
2023/05/14 10:58:35;;;;;;;11.00;8.80;;;;;;;20.27;100.00;101257.06;5129222;27;20527;-50
2023/05/14 11:01:01;;;;;;;10.68;8.85;;;;;;;20.99;100.00;101255.81;5127072;27;20490;-53
2023/05/14 11:03:32;;;;;;;13.20;9.18;;;;;;;21.49;100.00;101246.19;5127943;27;20122;-56
2023/05/14 11:06:02;;;;;;;10.10;7.93;;;;;;;21.81;100.00;101254.50;5132784;27;20027;-52
2023/05/14 11:08:28;;;;;;;11.88;8.02;;;;;;;22.11;100.00;101254.13;5129648;27;20104;-52